Date,TemperatureHighF,TemperatureAvgF,TemperatureLowF,DewpointHighF,DewpointAvgF,DewpointLowF,HumidityHigh,HumidityAvg,HumidityLow,PressureMaxIn,PressureMinIn,WindSpeedMaxMPH,WindSpeedAvgMPH,GustSpeedMaxMPH,PrecipitationSumIn
2013-1-1,18.0,6.1,-4.0,-1.0,-9.7,-18.0,50,47,43,30.31,30.19,3,1,6,0.00
2013-1-2,30.0,19.7,9.0,22.0,6.0,-9.0,77,56,43,30.16,30.04,6,2,11,0.00
2013-1-3,30.0,20.6,13.0,22.0,8.5,0.0,72,59,49,30.37,30.16,8,4,14,0.00
2013-1-4,37.0,24.8,13.0,27.0,13.5,0.0,86,64,40,30.31,30.16,6,3,13,0.00
2013-1-5,45.0,29.3,23.0,43.0,18.9,10.0,92,65,53,30.16,29.92,10,5,16,0.00
2013-1-6,30.0,22.0,13.0,16.0,8.8,2.0,80,57,43,30.31,30.07,10,4,13,0.00
2013-1-7,44.0,32.9,26.0,33.0,17.2,12.0,67,53,39,30.19,29.98,10,4,17,0.00
2013-1-8,49.0,33.2,22.0,27.0,21.8,16.0,84,65,41,30.04,29.83,8,3,13,0.00
2013-1-9,36.0,33.6,30.0,26.0,23.3,20.0,75,66,60,30.37,30.04,6,3,9,0.00
2013-1-10,40.0,34.9,29.0,33.0,25.1,18.0,88,69,41,30.37,29.72,4,2,8,0.00
2013-1-11,53.0,44.2,35.0,48.0,39.1,32.0,96,84,51,29.72,29.45,13,5,17,0.04
2013-1-12,53.0,24.9,14.0,35.0,8.2,-2.0,76,49,43,30.10,29.51,10,7,18,0.00
2013-1-13,19.0,12.4,8.0,10.0,-0.6,-8.0,77,57,45,30.31,30.07,11,6,14,0.00
2013-1-14,30.0,18.2,9.0,5.0,1.1,-2.0,61,48,33,30.42,30.31,6,2,9,0.00
2013-1-15,34.0,23.7,15.0,20.0,5.6,-1.0,61,47,34,30.37,30.07,8,3,12,0.00
2013-1-16,49.0,33.8,23.0,27.0,16.1,3.0,73,49,38,30.19,29.89,13,8,14,0.00
2013-1-17,36.0,26.3,17.0,20.0,9.4,2.0,68,49,34,30.42,30.19,6,2,9,0.00
2013-1-18,56.0,40.3,22.0,24.0,20.7,8.0,65,47,29,30.34,29.86,10,7,26,0.00
2013-1-19,51.0,41.3,19.0,25.0,20.7,0.0,53,44,33,30.25,29.80,10,7,21,0.00
2013-1-20,19.0,12.3,5.0,4.0,-2.9,-8.0,78,51,42,30.40,30.25,9,5,11,0.00
2013-1-21,9.0,3.2,-2.0,2.0,-2.6,-7.0,77,76,74,30.40,30.34,9,6,14,0.00
2013-1-22,20.0,10.0,1.0,6.0,-1.8,-5.0,74,60,39,30.40,30.28,5,2,7,0.00
2013-1-23,27.0,17.0,5.0,8.0,-1.3,-14.0,50,44,40,30.48,30.16,10,4,15,0.00
2013-1-24,20.0,9.6,2.0,-2.0,-10.8,-17.0,40,38,35,30.57,30.22,7,4,11,0.00
2013-1-25,35.0,25.3,13.0,14.0,7.6,-6.0,70,47,37,30.28,30.07,10,5,13,0.00
2013-1-26,35.0,21.1,8.0,7.0,-1.3,-11.0,42,37,31,30.31,30.13,8,5,12,0.00
2013-1-27,37.0,33.2,31.0,35.0,22.4,7.0,91,68,34,30.13,29.75,7,4,10,0.12
2013-1-28,47.0,36.9,34.0,46.0,35.7,33.0,97,96,91,29.89,29.57,5,3,8,0.08
2013-1-29,59.0,39.4,32.0,58.0,35.4,27.0,97,85,77,29.63,29.51,7,4,10,0.16
2013-1-30,32.0,23.3,18.0,28.0,18.0,7.0,96,81,60,29.83,29.51,16,9,22,0.00
2013-1-31,8.0,4.3,-2.0,2.0,-1.7,-8.0,76,76,76,30.34,30.04,10,7,20,0.00
2013-2-1,24.0,5.3,-5.0,8.0,-3.1,-11.0,76,69,49,30.37,30.01,12,3,12,0.00
2013-2-2,29.0,21.9,17.0,21.0,8.7,0.0,77,57,43,30.16,29.95,10,5,14,0.00
2013-2-3,34.0,24.8,17.0,20.0,8.7,4.0,77,51,36,30.16,29.78,14,5,21,0.00
2013-2-4,32.0,24.7,21.0,18.0,12.1,7.0,67,58,50,30.01,29.75,7,3,10,0.00
2013-2-5,44.0,31.1,21.0,26.0,18.9,11.0,77,61,48,29.92,29.80,12,4,16,0.00
2013-2-11,42.0,42.0,42.0,25.0,25.0,25.0,50,50,50,29.92,29.92,3,3,3,0.00
2013-2-12,42.0,42.0,42.0,25.0,25.0,25.0,50,50,50,29.92,29.92,3,3,3,0.00
2013-2-15,42.0,42.0,42.0,25.0,25.0,25.0,50,50,50,29.92,29.92,3,3,3,0.00
2013-2-18,42.0,42.0,42.0,25.0,25.0,25.0,50,50,50,29.92,29.92,3,3,3,0.00
2013-2-21,24.0,23.5,22.0,21.0,20.3,18.0,90,87,82,29.95,29.83,7,5,17,0.55
2013-2-22,33.0,23.9,22.0,30.0,16.5,9.0,91,74,55,29.98,29.75,13,4,17,0.04
2013-2-23,33.0,23.2,13.0,12.0,8.8,6.0,76,55,40,29.98,29.89,9,3,12,0.04
2013-2-24,45.0,28.5,14.0,21.0,14.2,4.0,73,56,37,30.07,29.92,6,1,7,0.04
2013-2-25,41.0,33.3,27.0,25.0,21.7,17.0,74,63,40,30.07,29.89,6,1,10,0.00
2013-2-26,32.0,30.5,28.0,30.0,26.3,19.0,97,86,60,29.89,29.69,12,3,13,0.00
2013-2-27,31.0,28.0,25.0,28.0,23.5,15.0,97,84,60,29.98,29.78,13,6,17,0.00
2013-2-28,33.0,27.0,22.0,19.0,16.5,13.0,77,65,50,30.16,29.98,10,5,15,0.00
2013-3-1,29.0,26.2,24.0,20.0,14.9,8.0,80,62,49,30.31,30.13,8,4,11,0.00
2013-3-2,33.0,24.3,14.0,12.0,9.7,7.0,76,54,42,30.31,30.16,8,2,10,0.00
2013-3-3,35.0,29.0,22.0,17.0,11.6,8.0,60,48,38,30.16,29.89,9,5,14,0.00
2013-3-4,37.0,32.1,28.0,27.0,22.7,17.0,81,68,53,29.92,29.75,11,4,16,0.00
2013-3-5,36.0,29.4,26.0,33.0,19.3,14.0,92,66,50,30.28,29.92,14,6,22,0.00
2013-3-6,32.0,25.3,19.0,17.0,12.8,9.0,69,59,44,30.40,30.28,9,3,14,0.00
2013-3-7,36.0,25.0,14.0,17.0,12.5,5.0,75,60,42,30.34,30.22,8,3,11,0.00
2013-3-8,45.0,34.6,25.0,28.0,21.0,15.0,76,59,40,30.25,30.01,11,4,15,0.08
2013-3-9,42.0,39.0,36.0,39.0,34.9,28.0,94,85,72,30.01,29.63,11,4,14,0.47
2013-3-10,38.0,34.7,31.0,37.0,33.0,30.0,97,94,86,29.80,29.63,13,4,15,0.43
2013-3-11,38.0,27.2,24.0,36.0,21.1,12.0,96,79,54,29.92,29.72,15,4,17,0.08
2013-3-12,43.0,27.5,20.0,42.0,15.3,9.0,97,60,47,30.22,29.92,15,6,22,0.00
2013-3-13,34.0,25.1,17.0,12.0,9.1,6.0,71,51,38,30.42,30.22,8,4,12,0.00
2013-3-14,54.0,37.7,26.0,32.0,20.5,11.0,64,50,38,30.31,30.04,10,2,14,0.00
2013-3-15,56.0,40.3,28.0,37.0,29.7,20.0,86,67,43,30.04,29.69,5,1,9,0.00
2013-3-16,37.0,32.8,27.0,33.0,20.1,12.0,86,60,43,30.19,29.78,12,5,16,0.00
2013-3-17,39.0,30.6,21.0,20.0,13.9,9.0,62,50,39,30.19,29.83,12,5,15,0.00
2013-3-18,46.0,29.9,22.0,45.0,16.7,4.0,97,59,42,29.98,29.72,19,7,24,0.12
2013-3-19,38.0,25.9,16.0,27.0,6.8,-1.0,87,44,33,30.25,29.95,12,6,17,0.04
2013-3-20,27.0,21.3,13.0,12.0,2.2,-4.0,63,43,35,30.34,30.13,14,6,19,0.00
2013-3-21,36.0,23.1,12.0,9.0,3.3,-3.0,55,43,31,30.13,29.95,8,2,12,0.00
2013-3-22,38.0,28.8,18.0,16.0,10.1,5.0,63,46,32,30.04,29.95,5,1,9,0.00
2013-3-23,38.0,31.8,27.0,25.0,14.9,10.0,78,51,33,30.13,29.98,9,3,11,0.00
2013-3-24,32.0,29.1,27.0,29.0,23.6,15.0,97,81,51,30.04,29.89,11,5,15,0.00
2013-3-25,37.0,30.8,27.0,27.0,18.9,13.0,97,65,39,30.25,29.95,11,5,15,0.04
2013-3-26,44.0,30.6,22.0,39.0,13.8,9.0,83,50,35,30.31,30.25,9,3,13,0.04
2013-3-27,47.0,34.8,22.0,27.0,16.2,9.0,75,48,31,30.31,30.22,7,1,10,0.00
2013-3-28,57.0,41.6,26.0,29.0,21.1,14.0,74,46,29,30.28,30.19,8,2,11,0.00
2013-3-29,63.0,48.1,29.0,35.0,24.4,18.0,76,43,25,30.25,30.10,9,3,13,0.00
2013-3-30,59.0,50.4,44.0,49.0,35.1,-99.9,86,59,33,30.10,29.86,9,2,11,0.08
2013-3-31,52.0,41.3,35.0,37.0,31.0,20.0,97,72,28,29.92,29.86,18,3,19,0.04
2013-4-2,24.0,21.4,19.0,12.0,9.4,7.0,67,59,51,30.31,30.28,0,0,0,0.00
2013-4-3,42.0,27.6,24.0,18.0,14.2,12.0,64,57,29,30.40,30.22,5,1,6,0.00
2013-4-4,42.0,37.1,33.0,15.0,10.9,9.0,40,34,29,30.22,30.16,8,4,10,0.00
2013-4-5,60.0,58.7,57.0,24.0,23.6,23.0,26,25,25,30.04,29.92,10,8,12,0.00
2013-4-6,67.0,59.7,55.0,37.0,32.6,28.0,38,36,33,29.80,29.54,17,9,21,0.00
2013-4-8,60.0,53.4,47.0,52.0,46.6,36.0,89,79,40,29.72,29.60,3,0,8,0.00
2013-4-9,59.0,50.5,42.0,57.0,47.7,40.0,93,90,83,29.83,29.72,8,3,11,0.43
2013-4-10,42.0,39.8,38.0,40.0,36.0,34.0,91,86,80,29.92,29.72,8,2,13,0.91
2013-4-11,49.0,38.4,36.0,48.0,33.8,26.0,97,84,65,29.75,29.60,9,4,13,0.16
2013-4-12,39.0,35.8,35.0,31.0,28.1,22.0,82,74,50,29.86,29.60,10,6,16,0.04
2013-4-13,34.0,31.6,29.0,19.0,17.9,16.0,63,57,50,29.98,29.95,9,4,13,0.00
2013-4-14,68.0,58.8,49.0,51.0,43.8,37.0,84,60,36,29.63,29.42,16,5,24,0.04
2013-4-15,51.0,42.3,37.0,39.0,27.6,19.0,77,57,40,29.92,29.63,16,3,17,0.08
2013-4-16,38.0,34.0,31.0,27.0,23.5,21.0,75,65,55,30.19,30.04,5,1,6,0.04
2013-4-17,45.0,41.9,40.0,44.0,40.3,38.0,97,94,91,29.95,29.69,10,5,18,1.93
2013-4-18,43.0,38.4,34.0,42.0,35.3,24.0,96,89,63,29.75,29.54,12,5,17,1.34
2013-4-19,43.0,34.1,30.0,25.0,20.3,16.0,68,58,33,29.86,29.69,13,9,19,0.04
2013-4-20,45.0,30.5,25.0,19.0,17.0,15.0,72,60,30,30.22,30.10,7,1,11,0.00
2013-4-21,67.0,53.6,42.0,36.0,26.5,19.0,48,36,24,30.22,30.04,16,6,22,0.00
2013-4-22,67.0,55.5,42.0,48.0,40.1,33.0,88,60,30,30.13,29.89,12,5,20,0.39
2013-4-23,37.0,34.9,34.0,33.0,28.4,26.0,86,77,73,30.10,30.04,11,6,16,0.12
2013-4-24,55.0,48.6,26.0,21.0,19.8,18.0,71,34,26,30.16,30.01,17,7,19,0.00
2013-4-25,62.0,45.1,33.0,25.0,24.4,23.0,71,49,24,30.22,30.10,9,3,14,0.00
2013-4-26,66.0,58.4,52.0,41.0,34.3,26.0,59,41,32,30.19,30.07,14,7,24,0.00
2013-4-27,63.0,52.6,45.0,43.0,38.5,35.0,78,60,37,30.22,29.98,8,2,11,0.00
2013-4-28,76.0,62.4,44.0,45.0,39.7,37.0,80,47,25,29.98,29.75,12,4,14,0.00
2013-4-29,76.0,61.2,57.0,47.0,45.2,43.0,66,56,34,29.78,29.54,9,4,14,0.00
2013-4-30,80.0,73.5,71.0,53.0,45.1,39.0,48,37,27,29.66,29.54,15,10,24,0.00
2013-5-2,36.0,35.0,34.0,33.0,31.5,30.0,87,86,86,30.34,30.31,10,8,14,0.75
2013-5-3,33.0,33.0,33.0,32.0,32.0,32.0,96,96,96,30.19,30.19,0,0,0,0.00
2013-7-31,80.0,72.2,69.0,62.0,58.0,55.0,77,62,44,30.10,30.01,4,1,7,0.00
2013-8-1,77.0,65.1,60.0,64.0,58.1,55.0,89,79,46,30.07,29.89,0,0,5,0.00
2013-10-16,50.0,46.7,41.0,41.0,36.5,31.0,82,68,53,30.01,29.92,10,5,13,0.00
2013-10-17,63.0,43.3,38.0,41.0,34.2,27.0,81,72,25,29.95,29.80,8,1,17,0.00
2013-10-18,51.0,42.2,37.0,32.0,29.7,21.0,80,63,30,30.07,29.95,8,3,13,0.00
2013-10-19,54.0,39.6,36.0,27.0,26.3,25.0,68,60,35,29.89,29.80,7,6,11,0.00
2013-10-22,42.0,38.8,37.0,36.0,30.0,22.0,86,71,51,30.07,29.86,7,3,10,0.04